Time;durP1;ratioP1;P1;durP2;ratioP2;P2;SDS_P1;SDS_P2;PMS_P1;PMS_P2;Temp;Humidity;BMP_temperature;BMP_pressure;BME280_temperature;BME280_humidity;BME280_pressure;Samples;Min_cycle;Max_cycle;Signal;HPM_P1;HPM_P2
2023/02/17 00:05:16;;;;;;;37.47;33.60;;;8.50;99.90;;;;;;4989127;28;20471;-90
2023/02/17 00:08:26;;;;;;;39.80;35.60;;;8.50;99.90;;;;;;5018506;28;20485;-90
2023/02/17 00:11:19;;;;;;;39.23;35.13;;;8.50;99.90;;;;;;5019174;28;20563;-91
2023/02/17 00:14:19;;;;;;;38.40;34.30;;;8.50;99.90;;;;;;5018423;28;20605;-91
2023/02/17 00:16:56;;;;;;;37.73;33.70;;;8.50;99.90;;;;;;5021845;28;20532;-90
2023/02/17 00:19:49;;;;;;;38.83;34.73;;;8.50;99.90;;;;;;5020246;28;20478;-91
2023/02/17 00:22:21;;;;;;;39.47;35.33;;;8.60;99.90;;;;;;5015892;28;20487;-90
2023/02/17 00:24:54;;;;;;;39.67;35.37;;;8.60;99.90;;;;;;5020897;28;20472;-93
2023/02/17 00:27:26;;;;;;;40.60;36.20;;;8.60;99.90;;;;;;5019652;28;20491;-89
2023/02/17 00:30:00;;;;;;;41.43;36.87;;;8.60;99.90;;;;;;5026346;28;20614;-91
2023/02/17 00:32:45;;;;;;;38.57;34.47;;;8.60;99.90;;;;;;5019822;28;20451;-91
2023/02/17 00:35:31;;;;;;;38.93;34.67;;;8.60;99.90;;;;;;5022748;28;20456;-89
2023/02/17 00:38:06;;;;;;;37.93;33.90;;;8.60;99.90;;;;;;5021221;28;20474;-89
2023/02/17 00:40:46;;;;;;;40.23;35.67;;;8.60;99.90;;;;;;5020356;28;20480;-90
2023/02/17 00:43:27;;;;;;;39.87;35.37;;;8.60;99.90;;;;;;5022050;28;20468;-91
2023/02/17 00:46:03;;;;;;;40.20;35.87;;;8.60;99.90;;;;;;5022474;28;21150;-91
2023/02/17 00:48:41;;;;;;;38.77;34.50;;;8.60;99.90;;;;;;5026708;28;20500;-90
2023/02/17 00:51:13;;;;;;;39.20;34.90;;;8.60;99.90;;;;;;5026005;28;20529;-92
2023/02/17 00:53:50;;;;;;;38.83;34.63;;;8.70;99.90;;;;;;5017654;28;20491;-91
2023/02/17 00:56:29;;;;;;;39.20;34.13;;;8.70;99.90;;;;;;5025951;28;20454;-91
2023/02/17 00:59:13;;;;;;;39.37;35.17;;;8.70;99.90;;;;;;5024314;28;20456;-91
2023/02/17 01:01:45;;;;;;;40.77;35.53;;;8.70;99.90;;;;;;5022850;28;20481;-92
2023/02/17 01:04:20;;;;;;;39.70;35.40;;;8.70;99.90;;;;;;5017346;28;20491;-91
2023/02/17 01:07:19;;;;;;;38.13;34.03;;;8.70;99.90;;;;;;5025495;28;20472;-90
2023/02/17 01:09:54;;;;;;;39.03;34.70;;;8.80;99.90;;;;;;5027629;28;20448;-92
2023/02/17 01:12:43;;;;;;;38.63;34.43;;;8.70;99.90;;;;;;5028244;28;20458;-92
2023/02/17 01:15:21;;;;;;;38.53;34.10;;;8.70;99.90;;;;;;5001524;28;20474;-91
2023/02/17 01:17:53;;;;;;;37.70;33.90;;;8.80;99.90;;;;;;5024189;28;20465;-90
2023/02/17 01:20:33;;;;;;;38.50;34.30;;;8.80;99.90;;;;;;5024680;28;20477;-90
2023/02/17 01:23:04;;;;;;;38.57;34.47;;;8.80;99.90;;;;;;5022736;28;20471;-91
2023/02/17 01:25:37;;;;;;;37.10;33.23;;;8.80;99.90;;;;;;5022627;28;20512;-93
2023/02/17 01:28:08;;;;;;;36.73;32.73;;;8.80;99.90;;;;;;5024546;28;20457;-92
2023/02/17 01:30:37;;;;;;;37.07;33.07;;;8.80;99.90;;;;;;5025725;28;20488;-93
2023/02/17 01:33:13;;;;;;;35.60;32.07;;;8.80;99.90;;;;;;5025278;28;20464;-91
2023/02/17 01:36:01;;;;;;;35.90;32.00;;;8.80;99.90;;;;;;5025166;28;20475;-91
2023/02/17 01:42:10;;;;;;;33.77;30.17;;;8.90;99.90;;;;;;5024549;28;20568;-92
2023/02/17 01:45:47;;;;;;;34.63;30.97;;;8.90;99.90;;;;;;5018534;28;20485;-92
2023/02/17 01:48:21;;;;;;;34.33;30.73;;;8.90;99.90;;;;;;5019386;28;20471;-91
2023/02/17 01:50:57;;;;;;;35.53;31.70;;;8.90;99.90;;;;;;5028900;28;20512;-92
2023/02/17 01:53:35;;;;;;;35.53;31.83;;;8.90;99.90;;;;;;5024052;28;20485;-92
2023/02/17 01:56:12;;;;;;;34.17;30.57;;;8.90;99.90;;;;;;5030977;28;20500;-91
2023/02/17 01:58:52;;;;;;;32.83;29.30;;;8.90;99.90;;;;;;5023314;28;20468;-90
2023/02/17 02:01:29;;;;;;;34.37;30.77;;;8.90;99.90;;;;;;5020887;28;20475;-91
2023/02/17 02:04:10;;;;;;;33.03;29.63;;;8.90;99.90;;;;;;5019760;28;20487;-92
2023/02/17 02:06:44;;;;;;;32.60;29.10;;;8.90;99.90;;;;;;5016130;28;20809;-91
2023/02/17 02:09:30;;;;;;;33.30;29.57;;;8.90;99.90;;;;;;5018416;28;20465;-89
2023/02/17 02:12:19;;;;;;;31.70;28.30;;;9.00;99.90;;;;;;5017625;28;20487;-90
2023/02/17 02:15:05;;;;;;;31.73;28.47;;;9.00;99.90;;;;;;5021156;28;20555;-91
2023/02/17 02:18:19;;;;;;;30.87;27.77;;;9.00;99.90;;;;;;5019002;28;20551;-91
2023/02/17 02:21:40;;;;;;;32.17;28.87;;;9.00;99.90;;;;;;5019409;28;20479;-89
2023/02/17 02:24:43;;;;;;;30.10;26.77;;;9.00;99.90;;;;;;4998074;28;21542;-91
2023/02/17 02:27:55;;;;;;;30.73;27.60;;;9.00;99.90;;;;;;4998952;28;20459;-92
2023/02/17 02:31:00;;;;;;;27.80;24.90;;;9.00;99.90;;;;;;5010072;28;20487;-91
2023/02/17 02:33:35;;;;;;;28.00;25.10;;;9.00;99.90;;;;;;5020805;28;20479;-92
2023/02/17 02:36:17;;;;;;;27.07;24.23;;;9.00;99.90;;;;;;5019436;28;20478;-92
2023/02/17 02:38:53;;;;;;;26.53;23.73;;;9.10;99.90;;;;;;5019679;28;20452;-91
2023/02/17 02:41:26;;;;;;;27.53;24.67;;;9.00;99.90;;;;;;5018574;28;20552;-90
2023/02/17 02:43:55;;;;;;;26.77;24.10;;;9.00;99.90;;;;;;5019018;28;20500;-91
2023/02/17 02:46:26;;;;;;;27.63;24.73;;;9.10;99.90;;;;;;5017149;28;20476;-92
2023/02/17 02:48:56;;;;;;;26.63;23.97;;;9.10;99.90;;;;;;5022157;28;20532;-91
2023/02/17 02:55:14;;;;;;;24.40;21.63;;;9.10;99.90;;;;;;5016765;28;20490;-92
2023/02/17 02:57:49;;;;;;;25.90;23.20;;;9.20;99.90;;;;;;5017098;28;20516;-92
2023/02/17 03:00:25;;;;;;;24.23;21.70;;;9.20;99.90;;;;;;5022698;28;20483;-92
2023/02/17 03:03:10;;;;;;;25.80;23.00;;;9.20;99.90;;;;;;5010455;28;20460;-89
2023/02/17 03:06:04;;;;;;;24.47;21.87;;;9.20;99.90;;;;;;5019015;28;20468;-91
2023/02/17 03:09:07;;;;;;;23.47;20.80;;;9.20;99.90;;;;;;5030674;28;20467;-90
2023/02/17 03:12:01;;;;;;;22.90;20.50;;;9.20;99.90;;;;;;5022353;28;20475;-92
2023/02/17 03:14:47;;;;;;;21.97;19.77;;;9.20;99.90;;;;;;5019805;28;20483;-90
2023/02/17 03:17:15;;;;;;;23.00;20.63;;;9.30;99.90;;;;;;5020400;28;20480;-91
2023/02/17 03:19:46;;;;;;;23.07;20.77;;;9.30;99.90;;;;;;5025809;28;20456;-92
2023/02/17 03:22:24;;;;;;;22.73;20.40;;;9.30;99.90;;;;;;5020610;28;20564;-92
2023/02/17 03:24:55;;;;;;;20.43;18.40;;;9.30;99.90;;;;;;5024309;28;20515;-92
2023/02/17 03:27:23;;;;;;;21.07;18.87;;;9.30;99.90;;;;;;5023798;28;20461;-92
2023/02/17 03:29:58;;;;;;;20.00;18.07;;;9.30;99.90;;;;;;5028993;28;20491;-92
2023/02/17 03:32:33;;;;;;;19.07;17.07;;;9.30;99.90;;;;;;5027953;28;20516;-93
2023/02/17 03:35:01;;;;;;;20.23;18.17;;;9.30;99.90;;;;;;5026942;28;20470;-93
2023/02/17 03:37:50;;;;;;;20.77;18.60;;;9.30;99.90;;;;;;5027901;28;20492;-91
2023/02/17 03:40:25;;;;;;;19.57;17.47;;;9.30;99.90;;;;;;5028215;28;20499;-92
2023/02/17 03:43:14;;;;;;;21.20;19.00;;;9.30;99.90;;;;;;5027864;28;20459;-93
2023/02/17 03:45:47;;;;;;;20.40;18.20;;;9.30;99.90;;;;;;5016879;28;20532;-90
2023/02/17 03:48:27;;;;;;;19.47;17.50;;;9.30;99.90;;;;;;5029290;28;20467;-92
2023/02/17 03:51:22;;;;;;;18.87;16.97;;;9.40;99.90;;;;;;5024547;28;20451;-92
2023/02/17 03:53:52;;;;;;;18.23;16.43;;;9.40;99.90;;;;;;5023538;28;20472;-92
2023/02/17 03:56:20;;;;;;;17.30;15.60;;;9.40;99.90;;;;;;5029822;28;20491;-92
2023/02/17 03:59:00;;;;;;;18.37;16.33;;;9.40;99.90;;;;;;5028957;28;20469;-93
2023/02/17 04:01:34;;;;;;;18.10;16.30;;;9.40;99.90;;;;;;5027355;28;20539;-91
2023/02/17 04:04:02;;;;;;;19.33;16.67;;;9.40;99.90;;;;;;5022598;28;20503;-92
2023/02/17 04:06:36;;;;;;;16.87;15.17;;;9.40;99.90;;;;;;5030032;28;20474;-92
2023/02/17 04:09:05;;;;;;;17.43;15.63;;;9.40;99.90;;;;;;5027327;28;20461;-93
2023/02/17 04:11:46;;;;;;;18.37;16.57;;;9.50;99.90;;;;;;5028229;28;20539;-92
2023/02/17 04:14:19;;;;;;;16.83;15.23;;;9.50;99.90;;;;;;5030129;28;20494;-92
2023/02/17 04:16:48;;;;;;;17.60;15.90;;;9.50;99.90;;;;;;5028435;28;20540;-92
2023/02/17 04:19:23;;;;;;;16.97;15.27;;;9.50;99.90;;;;;;5029217;28;20491;-91
2023/02/17 04:22:00;;;;;;;16.33;14.63;;;9.50;99.90;;;;;;5028486;28;20473;-92
2023/02/17 04:24:29;;;;;;;17.03;15.23;;;9.50;99.90;;;;;;5027371;28;20479;-92
2023/02/17 04:27:01;;;;;;;17.13;15.40;;;9.50;99.90;;;;;;5025275;28;20460;-93
2023/02/17 04:29:33;;;;;;;17.53;15.73;;;9.60;99.90;;;;;;5028040;28;20528;-92
2023/02/17 04:32:02;;;;;;;18.30;16.40;;;9.50;99.90;;;;;;5028474;28;20473;-92
2023/02/17 04:34:30;;;;;;;17.47;15.40;;;9.50;99.90;;;;;;5027052;28;20469;-91
2023/02/17 04:37:01;;;;;;;16.47;14.77;;;9.50;99.90;;;;;;5025845;28;20536;-93
2023/02/17 04:39:31;;;;;;;16.20;14.50;;;9.50;99.90;;;;;;5029162;28;20469;-90
2023/02/17 04:41:59;;;;;;;16.80;15.10;;;9.60;99.90;;;;;;5022064;28;20471;-92
2023/02/17 04:44:27;;;;;;;16.33;14.33;;;9.60;99.90;;;;;;5024250;28;20506;-91
2023/02/17 04:46:55;;;;;;;14.57;13.17;;;9.60;99.90;;;;;;5025775;28;20488;-91
2023/02/17 04:49:25;;;;;;;16.87;15.17;;;9.60;99.90;;;;;;5025856;28;20475;-91
2023/02/17 04:51:56;;;;;;;17.10;15.30;;;9.60;99.90;;;;;;5019491;28;20499;-92
2023/02/17 04:54:25;;;;;;;15.60;13.90;;;9.60;99.90;;;;;;5024150;28;20500;-91
2023/02/17 04:56:56;;;;;;;16.10;14.40;;;9.60;99.90;;;;;;5026249;28;20606;-93
2023/02/17 04:59:27;;;;;;;16.43;14.73;;;9.60;99.90;;;;;;5028069;28;20660;-92
2023/02/17 05:01:55;;;;;;;17.23;15.33;;;9.60;99.90;;;;;;5027241;28;20487;-92
2023/02/17 05:04:26;;;;;;;18.70;14.40;;;9.60;99.90;;;;;;5026622;28;20472;-93
2023/02/17 05:06:55;;;;;;;16.97;15.17;;;9.60;99.90;;;;;;5028840;28;20468;-91
2023/02/17 05:09:25;;;;;;;16.17;14.47;;;9.70;99.90;;;;;;5026111;28;20460;-93
2023/02/17 05:11:55;;;;;;;17.00;15.13;;;9.70;99.90;;;;;;5026435;28;20556;-90
2023/02/17 05:14:24;;;;;;;18.13;16.07;;;9.70;99.90;;;;;;5022561;28;20465;-90
2023/02/17 05:16:52;;;;;;;17.50;15.10;;;9.70;99.90;;;;;;5025651;28;20466;-93
2023/02/17 05:19:20;;;;;;;17.97;16.07;;;9.70;99.90;;;;;;5027082;28;20456;-92
2023/02/17 05:21:50;;;;;;;20.20;16.83;;;9.70;99.90;;;;;;5021467;28;20485;-92
2023/02/17 05:24:18;;;;;;;19.67;16.13;;;9.70;99.90;;;;;;5023823;28;20468;-90
2023/02/17 05:26:47;;;;;;;20.97;16.00;;;9.70;99.90;;;;;;5020865;28;20479;-92
2023/02/17 05:29:19;;;;;;;21.17;16.83;;;9.70;99.90;;;;;;5018663;28;20469;-93
2023/02/17 05:31:47;;;;;;;18.03;15.53;;;9.70;99.90;;;;;;5021267;28;20492;-92
2023/02/17 05:34:16;;;;;;;20.03;16.57;;;9.70;99.90;;;;;;5021054;28;20504;-90
2023/02/17 05:36:44;;;;;;;18.77;15.67;;;9.70;99.90;;;;;;5024389;28;20495;-90
2023/02/17 05:39:12;;;;;;;19.03;15.93;;;9.70;99.90;;;;;;5024226;28;20499;-91
2023/02/17 05:41:41;;;;;;;17.97;15.73;;;9.70;99.90;;;;;;5022863;28;20495;-92
2023/02/17 05:44:09;;;;;;;22.50;18.20;;;9.70;99.90;;;;;;5024434;28;20494;-92
2023/02/17 05:46:39;;;;;;;23.23;17.57;;;9.80;99.90;;;;;;5023196;28;20476;-92
2023/02/17 05:49:08;;;;;;;21.60;17.50;;;9.70;99.90;;;;;;5023868;28;20462;-89
2023/02/17 05:51:41;;;;;;;19.80;16.33;;;9.70;99.90;;;;;;5023146;28;20500;-92
2023/02/17 05:54:15;;;;;;;19.70;16.70;;;9.70;99.90;;;;;;5020731;28;20468;-91
2023/02/17 05:56:44;;;;;;;20.90;17.53;;;9.70;99.90;;;;;;5020821;28;20468;-91
2023/02/17 05:59:17;;;;;;;23.07;18.13;;;9.70;99.90;;;;;;5025421;28;20465;-93
2023/02/17 06:01:50;;;;;;;25.10;18.87;;;9.70;99.90;;;;;;5021346;28;20480;-90
2023/02/17 06:04:22;;;;;;;25.53;19.43;;;9.70;99.90;;;;;;5023751;28;20484;-93
2023/02/17 06:06:50;;;;;;;23.40;18.00;;;9.70;99.90;;;;;;5020243;28;20486;-90
2023/02/17 06:09:21;;;;;;;23.10;18.10;;;9.80;99.90;;;;;;5020048;28;20463;-90
2023/02/17 06:11:49;;;;;;;23.60;18.87;;;9.80;99.90;;;;;;5015856;28;20531;-90
2023/02/17 06:14:35;;;;;;;25.00;19.30;;;9.80;99.90;;;;;;5015108;28;20480;-93
2023/02/17 06:17:05;;;;;;;24.40;18.63;;;9.80;99.90;;;;;;5020032;28;20461;-91
2023/02/17 06:19:36;;;;;;;22.73;19.20;;;9.80;99.90;;;;;;5026095;28;20457;-92
2023/02/17 06:22:07;;;;;;;25.60;19.80;;;9.90;99.90;;;;;;5024567;28;20531;-91
2023/02/17 06:24:38;;;;;;;22.47;18.20;;;9.80;99.90;;;;;;5011192;28;20490;-93
2023/02/17 06:27:09;;;;;;;25.90;19.03;;;9.80;99.90;;;;;;5021073;28;20449;-92
2023/02/17 06:29:37;;;;;;;23.83;18.77;;;9.90;99.90;;;;;;5018228;28;20487;-93
2023/02/17 06:32:10;;;;;;;26.20;20.57;;;9.80;99.90;;;;;;5019832;28;20504;-90
2023/02/17 06:34:44;;;;;;;24.13;18.53;;;9.90;99.90;;;;;;5024060;28;20485;-92
2023/02/17 06:37:18;;;;;;;26.70;20.03;;;9.80;99.90;;;;;;5025019;28;20456;-91
2023/02/17 06:39:55;;;;;;;24.43;19.40;;;9.80;99.90;;;;;;5027835;28;20495;-92
2023/02/17 06:42:24;;;;;;;24.30;20.10;;;9.80;99.90;;;;;;5022879;28;20453;-91
2023/02/17 06:44:54;;;;;;;24.03;18.70;;;9.80;99.90;;;;;;5019231;28;20503;-91
2023/02/17 06:47:24;;;;;;;25.17;19.20;;;9.80;99.90;;;;;;5023019;28;20453;-92
2023/02/17 06:49:52;;;;;;;26.77;19.40;;;9.80;99.90;;;;;;5022841;28;20465;-94
2023/02/17 06:52:20;;;;;;;24.50;19.33;;;9.80;99.90;;;;;;5023537;28;20452;-91
2023/02/17 06:54:49;;;;;;;27.47;20.50;;;9.80;99.90;;;;;;5022913;28;20503;-92
2023/02/17 06:57:20;;;;;;;24.97;18.87;;;9.80;99.90;;;;;;5022766;28;20481;-92
2023/02/17 06:59:48;;;;;;;27.70;20.30;;;9.80;99.90;;;;;;5022760;28;20541;-89
2023/02/17 07:02:19;;;;;;;25.17;19.50;;;9.80;99.90;;;;;;5024245;28;20475;-92
2023/02/17 07:04:49;;;;;;;29.50;21.87;;;9.80;99.90;;;;;;5022574;28;20501;-90
2023/02/17 07:07:21;;;;;;;29.10;21.80;;;9.80;99.90;;;;;;5025078;28;20869;-91
2023/02/17 07:09:51;;;;;;;27.77;21.00;;;9.80;99.90;;;;;;5024859;28;20532;-92
2023/02/17 07:12:19;;;;;;;27.87;21.40;;;9.80;99.90;;;;;;5025189;28;21702;-92
2023/02/17 07:14:48;;;;;;;29.00;22.47;;;9.80;99.90;;;;;;5025135;28;20574;-92
2023/02/17 07:17:16;;;;;;;29.40;21.50;;;9.90;99.90;;;;;;5023275;28;20481;-92
2023/02/17 07:19:44;;;;;;;28.93;22.33;;;9.90;99.90;;;;;;5024909;28;20458;-92
2023/02/17 07:22:14;;;;;;;30.80;23.30;;;9.90;99.90;;;;;;5023870;28;20476;-93
2023/02/17 07:24:43;;;;;;;29.37;21.40;;;10.00;99.90;;;;;;5022221;28;20503;-92
2023/02/17 07:27:12;;;;;;;29.27;21.23;;;9.90;99.90;;;;;;5023119;28;20462;-93
2023/02/17 07:29:51;;;;;;;33.57;22.77;;;9.90;99.90;;;;;;5027222;28;20483;-92
2023/02/17 07:32:23;;;;;;;27.87;22.07;;;9.90;99.90;;;;;;5024928;28;20457;-92
2023/02/17 07:34:51;;;;;;;29.27;22.03;;;9.90;99.90;;;;;;5023904;28;20467;-92
2023/02/17 07:37:21;;;;;;;29.60;21.70;;;10.00;99.90;;;;;;5022232;28;20521;-92
2023/02/17 07:39:51;;;;;;;29.60;22.40;;;10.00;99.90;;;;;;5026486;28;20580;-92
2023/02/17 07:42:26;;;;;;;27.40;21.47;;;10.00;99.90;;;;;;5025217;28;20472;-94
2023/02/17 07:44:57;;;;;;;30.57;23.03;;;10.00;99.90;;;;;;5022874;28;20484;-93
2023/02/17 07:47:25;;;;;;;30.87;22.00;;;10.00;99.90;;;;;;5025735;28;20456;-92
2023/02/17 07:49:54;;;;;;;31.33;23.37;;;10.00;99.90;;;;;;5026233;28;20440;-91
2023/02/17 07:52:24;;;;;;;29.03;21.93;;;10.00;99.90;;;;;;5028321;28;20464;-92
2023/02/17 07:54:52;;;;;;;30.40;22.30;;;10.00;99.90;;;;;;5013730;28;20485;-92
2023/02/17 07:57:33;;;;;;;32.77;21.87;;;10.00;99.90;;;;;;5029490;28;20521;-92
2023/02/17 08:00:01;;;;;;;26.57;20.70;;;10.10;99.90;;;;;;5028299;28;20457;-93
2023/02/17 08:02:32;;;;;;;28.70;21.40;;;10.00;99.90;;;;;;5030525;28;20457;-92
2023/02/17 08:05:04;;;;;;;27.83;21.43;;;10.00;99.90;;;;;;5026806;28;20478;-92
2023/02/17 08:07:34;;;;;;;28.27;20.87;;;10.00;99.90;;;;;;5026897;28;20547;-91
2023/02/17 08:15:49;;;;;;;26.70;20.13;;;10.00;99.90;;;;;;5005242;28;20469;-94
2023/02/17 08:18:17;;;;;;;29.10;21.23;;;10.10;99.90;;;;;;5027443;28;20516;-93
2023/02/17 08:20:49;;;;;;;26.93;19.97;;;10.10;99.90;;;;;;5029368;28;20503;-91
2023/02/17 08:23:21;;;;;;;25.43;19.57;;;10.10;99.90;;;;;;5027847;28;20472;-92
2023/02/17 08:25:50;;;;;;;26.90;20.30;;;10.00;99.90;;;;;;5027220;28;20513;-94
2023/02/17 08:28:22;;;;;;;26.63;19.03;;;10.10;99.90;;;;;;5028317;28;20458;-93
2023/02/17 08:31:00;;;;;;;22.30;17.30;;;10.00;99.90;;;;;;5028450;28;20552;-92
2023/02/17 08:33:52;;;;;;;20.90;16.10;;;10.00;99.90;;;;;;5026848;28;20515;-94
2023/02/17 08:36:24;;;;;;;20.63;16.20;;;10.00;99.90;;;;;;5033345;28;20463;-92
2023/02/17 08:38:54;;;;;;;21.07;14.63;;;10.00;99.90;;;;;;5025689;28;20445;-93
2023/02/17 08:41:26;;;;;;;22.20;15.97;;;10.00;99.90;;;;;;5028682;28;20504;-92
2023/02/17 08:43:58;;;;;;;21.43;15.93;;;10.00;99.90;;;;;;5028057;28;20515;-92
2023/02/17 08:46:32;;;;;;;24.20;16.70;;;10.00;99.90;;;;;;5028480;28;20508;-94
2023/02/17 08:49:09;;;;;;;22.60;16.20;;;10.00;99.90;;;;;;5028882;28;20464;-92
2023/02/17 08:51:41;;;;;;;21.03;16.93;;;10.00;99.90;;;;;;5027795;28;20510;-94
2023/02/17 08:54:17;;;;;;;22.00;16.83;;;10.00;99.90;;;;;;5026252;28;20472;-93
2023/02/17 08:56:51;;;;;;;19.57;16.17;;;10.00;99.90;;;;;;5028852;28;20564;-92
2023/02/17 08:59:28;;;;;;;20.00;15.20;;;10.00;99.90;;;;;;5027092;28;20471;-94
2023/02/17 09:02:05;;;;;;;20.00;14.10;;;10.00;99.90;;;;;;5027101;28;20473;-93
2023/02/17 09:04:33;;;;;;;19.70;14.30;;;10.00;99.90;;;;;;5026565;28;20544;-94
2023/02/17 09:07:02;;;;;;;19.87;15.23;;;10.00;99.90;;;;;;5027365;28;20476;-93
2023/02/17 09:09:33;;;;;;;21.80;16.00;;;10.00;99.90;;;;;;5028563;28;20453;-92
2023/02/17 09:12:02;;;;;;;23.57;16.30;;;10.00;99.90;;;;;;5025229;28;20492;-93
2023/02/17 09:14:33;;;;;;;22.27;17.40;;;10.00;99.90;;;;;;5025349;28;20515;-94
2023/02/17 09:17:22;;;;;;;20.87;15.57;;;10.00;99.90;;;;;;5027762;28;20484;-93
2023/02/17 09:19:55;;;;;;;24.40;17.87;;;10.00;99.90;;;;;;5025838;28;20448;-92
2023/02/17 09:22:33;;;;;;;22.47;17.03;;;10.00;99.90;;;;;;5028443;28;20523;-92
2023/02/17 09:25:10;;;;;;;18.80;15.13;;;10.00;99.90;;;;;;5018444;28;20466;-92
2023/02/17 09:27:45;;;;;;;19.70;15.27;;;10.00;99.90;;;;;;5025693;28;20485;-93
2023/02/17 09:30:16;;;;;;;22.17;15.40;;;10.00;99.90;;;;;;5016434;28;20479;-91
2023/02/17 09:32:45;;;;;;;20.67;15.47;;;10.00;99.90;;;;;;5025414;28;20457;-92
2023/02/17 09:35:26;;;;;;;19.00;13.90;;;10.00;99.90;;;;;;5025904;28;20500;-91
2023/02/17 09:37:55;;;;;;;20.90;14.80;;;10.10;99.90;;;;;;5027958;28;20464;-93
2023/02/17 09:40:43;;;;;;;19.07;14.57;;;10.00;99.90;;;;;;5027155;28;20536;-92
2023/02/17 09:43:15;;;;;;;17.93;13.37;;;10.10;99.90;;;;;;5022481;28;20463;-92
2023/02/17 09:45:47;;;;;;;18.00;14.30;;;10.10;99.90;;;;;;5028009;28;20503;-93
2023/02/17 09:48:21;;;;;;;24.20;16.20;;;10.10;99.90;;;;;;5025795;28;20484;-93
2023/02/17 09:50:55;;;;;;;17.00;12.90;;;10.10;99.90;;;;;;5027316;28;20487;-94
2023/02/17 09:53:30;;;;;;;16.70;13.10;;;10.10;99.90;;;;;;5026323;28;20484;-93
2023/02/17 09:56:07;;;;;;;18.77;13.50;;;10.10;99.90;;;;;;5027815;28;20479;-93
2023/02/17 09:58:40;;;;;;;18.27;12.50;;;10.10;99.90;;;;;;5027786;28;20531;-93
2023/02/17 10:01:16;;;;;;;16.03;12.33;;;10.10;99.90;;;;;;5027281;28;20511;-92
2023/02/17 10:03:50;;;;;;;17.83;13.67;;;10.10;99.90;;;;;;5027032;28;20459;-92
2023/02/17 10:06:24;;;;;;;16.20;12.63;;;10.10;99.90;;;;;;5030093;28;20504;-91
2023/02/17 10:09:03;;;;;;;16.27;12.80;;;10.20;99.90;;;;;;5028052;28;20452;-92
2023/02/17 10:11:46;;;;;;;18.70;13.97;;;10.20;99.90;;;;;;5026033;28;20568;-94
2023/02/17 10:14:28;;;;;;;16.37;11.77;;;10.20;99.90;;;;;;5025571;28;20468;-92
2023/02/17 10:17:03;;;;;;;16.73;12.80;;;10.20;99.90;;;;;;5025616;28;20503;-93
2023/02/17 10:19:38;;;;;;;16.53;12.30;;;10.20;99.90;;;;;;5026186;28;20518;-94
2023/02/17 10:22:14;;;;;;;19.60;13.50;;;10.20;99.90;;;;;;5024927;28;20476;-92
2023/02/17 10:24:43;;;;;;;17.50;13.43;;;10.30;99.90;;;;;;5025261;28;20511;-92
2023/02/17 10:27:29;;;;;;;18.87;14.23;;;10.30;99.90;;;;;;5025316;28;20476;-93
2023/02/17 10:30:16;;;;;;;17.17;13.87;;;10.30;99.90;;;;;;5023287;28;20499;-92
2023/02/17 10:32:57;;;;;;;21.00;14.70;;;10.30;99.90;;;;;;5024302;28;20471;-92
2023/02/17 10:35:49;;;;;;;20.90;14.90;;;10.40;99.90;;;;;;5025287;28;20504;-93
2023/02/17 10:38:25;;;;;;;19.13;14.50;;;10.30;99.90;;;;;;5025985;28;20458;-91
2023/02/17 10:40:58;;;;;;;21.00;14.07;;;10.30;99.90;;;;;;5027348;28;20492;-93
2023/02/17 10:43:34;;;;;;;22.83;15.10;;;10.30;99.90;;;;;;5025014;28;20495;-92
2023/02/17 10:46:25;;;;;;;18.80;14.30;;;10.30;99.90;;;;;;5027959;28;20556;-93
2023/02/17 10:48:56;;;;;;;20.60;14.40;;;10.40;99.90;;;;;;5028225;28;20452;-93
2023/02/17 10:51:27;;;;;;;18.73;13.27;;;10.40;99.90;;;;;;5033756;28;20543;-93
2023/02/17 10:54:03;;;;;;;17.83;13.00;;;10.40;99.90;;;;;;5029608;28;20472;-92
2023/02/17 10:56:38;;;;;;;16.07;11.97;;;10.40;99.90;;;;;;5028448;28;20465;-92
2023/02/17 10:59:21;;;;;;;17.93;11.50;;;10.40;99.90;;;;;;5024662;28;20449;-93
2023/02/17 11:02:06;;;;;;;15.53;11.07;;;10.40;99.90;;;;;;5027954;28;20484;-94
2023/02/17 11:04:43;;;;;;;17.23;10.87;;;10.50;99.90;;;;;;5025500;28;20503;-94
2023/02/17 11:07:16;;;;;;;16.27;11.93;;;10.50;99.90;;;;;;5024231;28;20480;-92
2023/02/17 11:10:00;;;;;;;15.63;10.73;;;10.50;99.90;;;;;;5025241;28;20452;-93
2023/02/17 11:12:38;;;;;;;17.53;11.70;;;10.50;99.90;;;;;;5025754;28;20471;-92
2023/02/17 11:15:20;;;;;;;16.60;11.90;;;10.50;99.90;;;;;;5023630;28;20472;-92
2023/02/17 11:17:51;;;;;;;16.80;12.60;;;10.50;99.90;;;;;;5022278;28;20477;-93
2023/02/17 11:20:37;;;;;;;15.87;11.50;;;10.60;99.90;;;;;;5023372;28;20488;-92
2023/02/17 11:23:22;;;;;;;15.87;12.20;;;10.60;99.90;;;;;;5021891;28;20562;-94
2023/02/17 11:26:01;;;;;;;15.27;11.70;;;10.60;99.90;;;;;;5025511;28;20460;-92
2023/02/17 11:28:29;;;;;;;16.43;11.40;;;10.50;99.90;;;;;;5028796;28;20460;-93
2023/02/17 11:31:01;;;;;;;15.83;11.37;;;10.60;99.90;;;;;;5030215;28;20469;-92
2023/02/17 11:33:32;;;;;;;17.97;12.00;;;10.50;99.90;;;;;;5028344;28;20542;-92
2023/02/17 11:36:02;;;;;;;15.80;11.53;;;10.60;99.90;;;;;;5030432;28;20443;-92
2023/02/17 11:38:41;;;;;;;15.73;11.63;;;10.60;99.90;;;;;;5030512;28;20444;-92
2023/02/17 11:41:10;;;;;;;17.13;11.93;;;10.60;99.90;;;;;;5030041;28;20479;-92
2023/02/17 11:43:39;;;;;;;17.27;12.20;;;10.60;99.90;;;;;;5029639;28;20476;-93
2023/02/17 11:46:20;;;;;;;15.10;11.80;;;10.60;99.90;;;;;;5029235;28;20452;-92
2023/02/17 11:49:29;;;;;;;19.43;13.03;;;10.60;99.90;;;;;;5030467;28;20461;-94
2023/02/17 11:52:15;;;;;;;17.10;12.63;;;10.60;99.90;;;;;;5030474;28;20475;-93
2023/02/17 11:54:55;;;;;;;19.10;13.40;;;10.60;99.90;;;;;;5028817;28;20546;-90
2023/02/17 11:57:36;;;;;;;18.63;13.70;;;10.60;99.90;;;;;;5031099;28;20444;-93
2023/02/17 12:00:17;;;;;;;17.30;12.03;;;10.60;99.90;;;;;;5028883;28;20472;-92
2023/02/17 12:03:18;;;;;;;19.60;13.07;;;10.60;99.90;;;;;;5029066;28;20444;-92
2023/02/17 12:06:01;;;;;;;16.67;12.07;;;10.70;99.90;;;;;;5026367;28;20475;-93
2023/02/17 12:08:40;;;;;;;17.60;11.90;;;10.70;99.90;;;;;;5028318;28;20472;-92
2023/02/17 12:11:19;;;;;;;18.23;12.60;;;10.70;99.90;;;;;;5027658;28;20483;-92
2023/02/17 12:13:57;;;;;;;17.40;12.40;;;10.70;99.90;;;;;;5028099;28;20463;-92
2023/02/17 12:16:42;;;;;;;15.13;11.83;;;10.70;99.90;;;;;;5027567;28;20480;-93
2023/02/17 12:19:34;;;;;;;15.17;11.40;;;10.80;99.90;;;;;;5025592;28;21410;-92
2023/02/17 12:22:16;;;;;;;15.60;12.00;;;10.80;99.90;;;;;;5028299;28;20500;-95
2023/02/17 12:25:20;;;;;;;15.10;11.03;;;10.80;99.90;;;;;;5025196;28;20476;-92
2023/02/17 12:28:02;;;;;;;18.20;12.47;;;10.80;99.90;;;;;;5028226;28;20536;-92
2023/02/17 12:30:44;;;;;;;15.37;11.83;;;10.80;99.90;;;;;;5025077;28;20838;-92
2023/02/17 12:33:57;;;;;;;16.13;12.70;;;10.90;99.90;;;;;;5027736;28;20469;-92
2023/02/17 12:36:44;;;;;;;16.20;10.53;;;10.90;99.90;;;;;;4971528;28;20480;-92
2023/02/17 12:39:23;;;;;;;17.27;12.37;;;10.90;99.90;;;;;;5024670;28;20839;-90
2023/02/17 12:42:13;;;;;;;15.63;10.33;;;10.90;99.90;;;;;;5025447;28;20528;-90
2023/02/17 12:45:05;;;;;;;13.97;10.40;;;10.90;99.90;;;;;;5018269;28;20472;-89
2023/02/17 12:47:47;;;;;;;13.10;10.13;;;10.90;99.90;;;;;;5025159;28;20508;-88
2023/02/17 12:50:26;;;;;;;12.80;9.83;;;10.90;99.90;;;;;;5024623;28;20503;-91
2023/02/17 12:53:12;;;;;;;13.43;9.50;;;10.90;99.90;;;;;;5024825;28;20495;-91
2023/02/17 12:55:54;;;;;;;11.80;9.33;;;10.90;99.90;;;;;;5025820;28;20560;-90
2023/02/17 12:58:39;;;;;;;10.57;8.77;;;10.90;99.90;;;;;;5028064;28;20478;-91
2023/02/17 13:01:20;;;;;;;11.80;8.70;;;10.90;99.90;;;;;;5023815;28;20476;-89
2023/02/17 13:04:02;;;;;;;10.70;8.73;;;10.90;99.90;;;;;;5027198;28;20485;-91
2023/02/17 13:13:48;;;;;;;8.33;7.43;;;10.90;99.90;;;;;;4909107;29;20496;-91
2023/02/17 13:17:04;;;;;;;9.93;7.93;;;10.90;99.90;;;;;;4893382;29;20459;-89
2023/02/17 13:23:12;;;;;;;9.10;7.80;;;10.90;99.90;;;;;;4913704;29;20536;-90
2023/02/17 13:26:21;;;;;;;10.00;8.70;;;10.90;99.90;;;;;;4927356;29;20461;-90
2023/02/17 13:29:06;;;;;;;9.17;8.10;;;11.00;99.90;;;;;;4925423;29;20505;-90
2023/02/17 13:31:49;;;;;;;11.13;7.50;;;10.90;99.90;;;;;;4928287;29;20484;-90
2023/02/17 13:34:28;;;;;;;8.43;7.30;;;10.90;99.90;;;;;;4924159;29;20488;-90
2023/02/17 13:37:01;;;;;;;8.17;7.00;;;10.90;99.90;;;;;;4925017;29;20465;-88
2023/02/17 13:43:29;;;;;;;9.40;7.90;;;11.00;99.90;;;;;;4985994;28;20530;-89
2023/02/17 13:46:23;;;;;;;11.10;7.67;;;11.10;99.90;;;;;;4987762;28;20542;-89
2023/02/17 13:49:51;;;;;;;12.80;7.80;;;11.10;99.90;;;;;;4985077;28;20474;-90
2023/02/17 13:52:28;;;;;;;11.00;6.90;;;11.10;99.90;;;;;;4989821;28;20482;-89
2023/02/17 13:55:22;;;;;;;9.30;7.43;;;11.10;99.90;;;;;;5026306;28;20476;-89